sensor_id;sensor_type;location;lat;lon;timestamp;P1;durP1;ratioP1;P2;durP2;ratioP2
7563;SDS011;3823;53.586;10.040;2024-02-28T00:02:11;25.67;;;18.33;;
7563;SDS011;3823;53.586;10.040;2024-02-28T00:04:37;29.10;;;19.23;;
7563;SDS011;3823;53.586;10.040;2024-02-28T00:07:04;28.58;;;17.88;;
7563;SDS011;3823;53.586;10.040;2024-02-28T00:09:30;32.53;;;18.88;;
7563;SDS011;3823;53.586;10.040;2024-02-28T00:11:56;26.80;;;17.08;;
7563;SDS011;3823;53.586;10.040;2024-02-28T00:14:21;30.85;;;18.67;;
7563;SDS011;3823;53.586;10.040;2024-02-28T00:16:47;28.98;;;19.05;;
7563;SDS011;3823;53.586;10.040;2024-02-28T00:19:13;29.83;;;19.05;;
7563;SDS011;3823;53.586;10.040;2024-02-28T00:21:39;33.30;;;18.23;;
7563;SDS011;3823;53.586;10.040;2024-02-28T00:24:05;31.55;;;17.58;;
7563;SDS011;3823;53.586;10.040;2024-02-28T00:26:34;34.13;;;21.50;;
7563;SDS011;3823;53.586;10.040;2024-02-28T00:28:59;31.85;;;19.98;;
7563;SDS011;3823;53.586;10.040;2024-02-28T00:31:25;34.22;;;21.38;;
7563;SDS011;3823;53.586;10.040;2024-02-28T00:33:50;37.33;;;22.23;;
7563;SDS011;3823;53.586;10.040;2024-02-28T00:36:16;37.33;;;21.92;;
7563;SDS011;3823;53.586;10.040;2024-02-28T00:38:41;36.05;;;21.20;;
7563;SDS011;3823;53.586;10.040;2024-02-28T00:41:07;39.05;;;22.25;;
7563;SDS011;3823;53.586;10.040;2024-02-28T00:43:33;36.63;;;21.85;;
7563;SDS011;3823;53.586;10.040;2024-02-28T00:45:58;43.00;;;22.27;;
7563;SDS011;3823;53.586;10.040;2024-02-28T00:48:24;35.47;;;20.85;;
7563;SDS011;3823;53.586;10.040;2024-02-28T00:50:50;35.97;;;21.55;;
7563;SDS011;3823;53.586;10.040;2024-02-28T00:53:17;43.70;;;22.77;;
7563;SDS011;3823;53.586;10.040;2024-02-28T00:55:42;37.60;;;22.38;;
7563;SDS011;3823;53.586;10.040;2024-02-28T00:58:08;35.95;;;20.48;;
7563;SDS011;3823;53.586;10.040;2024-02-28T01:00:35;41.63;;;22.98;;
7563;SDS011;3823;53.586;10.040;2024-02-28T01:03:00;37.03;;;21.15;;
7563;SDS011;3823;53.586;10.040;2024-02-28T01:05:28;36.90;;;21.35;;
7563;SDS011;3823;53.586;10.040;2024-02-28T01:07:54;36.47;;;20.15;;
7563;SDS011;3823;53.586;10.040;2024-02-28T01:10:20;36.30;;;20.92;;
7563;SDS011;3823;53.586;10.040;2024-02-28T01:12:46;36.13;;;20.52;;
7563;SDS011;3823;53.586;10.040;2024-02-28T01:15:11;36.50;;;22.05;;
7563;SDS011;3823;53.586;10.040;2024-02-28T01:17:38;39.80;;;22.80;;
7563;SDS011;3823;53.586;10.040;2024-02-28T01:20:04;39.10;;;21.13;;
7563;SDS011;3823;53.586;10.040;2024-02-28T01:22:30;39.85;;;22.20;;
7563;SDS011;3823;53.586;10.040;2024-02-28T01:24:56;36.22;;;19.52;;
7563;SDS011;3823;53.586;10.040;2024-02-28T01:27:21;37.50;;;20.90;;
7563;SDS011;3823;53.586;10.040;2024-02-28T01:29:47;37.95;;;22.42;;
7563;SDS011;3823;53.586;10.040;2024-02-28T01:32:13;40.08;;;22.67;;
7563;SDS011;3823;53.586;10.040;2024-02-28T01:34:38;36.75;;;21.80;;
7563;SDS011;3823;53.586;10.040;2024-02-28T01:37:04;38.88;;;23.58;;
7563;SDS011;3823;53.586;10.040;2024-02-28T01:39:30;33.20;;;19.67;;
7563;SDS011;3823;53.586;10.040;2024-02-28T01:41:55;38.20;;;21.40;;
7563;SDS011;3823;53.586;10.040;2024-02-28T01:44:22;39.50;;;20.85;;
7563;SDS011;3823;53.586;10.040;2024-02-28T01:46:48;33.60;;;19.65;;
7563;SDS011;3823;53.586;10.040;2024-02-28T01:49:13;37.75;;;20.10;;
7563;SDS011;3823;53.586;10.040;2024-02-28T01:51:41;39.75;;;22.10;;
7563;SDS011;3823;53.586;10.040;2024-02-28T01:54:07;44.53;;;22.77;;
7563;SDS011;3823;53.586;10.040;2024-02-28T01:56:33;39.55;;;20.55;;
7563;SDS011;3823;53.586;10.040;2024-02-28T01:58:59;40.13;;;20.75;;
7563;SDS011;3823;53.586;10.040;2024-02-28T02:01:26;39.15;;;21.77;;
7563;SDS011;3823;53.586;10.040;2024-02-28T02:03:53;38.75;;;19.85;;
7563;SDS011;3823;53.586;10.040;2024-02-28T02:06:19;39.88;;;21.30;;
7563;SDS011;3823;53.586;10.040;2024-02-28T02:08:45;36.70;;;19.73;;
7563;SDS011;3823;53.586;10.040;2024-02-28T02:11:11;43.33;;;22.02;;
7563;SDS011;3823;53.586;10.040;2024-02-28T02:13:49;39.40;;;21.73;;
7563;SDS011;3823;53.586;10.040;2024-02-28T02:16:15;40.20;;;21.33;;
7563;SDS011;3823;53.586;10.040;2024-02-28T02:18:41;38.88;;;21.50;;
7563;SDS011;3823;53.586;10.040;2024-02-28T02:21:06;38.72;;;20.50;;
7563;SDS011;3823;53.586;10.040;2024-02-28T02:23:36;37.83;;;20.58;;
7563;SDS011;3823;53.586;10.040;2024-02-28T02:26:06;39.40;;;19.45;;
7563;SDS011;3823;53.586;10.040;2024-02-28T02:28:32;37.13;;;20.58;;
7563;SDS011;3823;53.586;10.040;2024-02-28T02:30:57;40.75;;;22.40;;
7563;SDS011;3823;53.586;10.040;2024-02-28T02:33:23;42.47;;;22.23;;
7563;SDS011;3823;53.586;10.040;2024-02-28T02:35:49;33.63;;;18.92;;
7563;SDS011;3823;53.586;10.040;2024-02-28T02:38:14;35.72;;;20.52;;
7563;SDS011;3823;53.586;10.040;2024-02-28T02:40:40;33.13;;;17.10;;
7563;SDS011;3823;53.586;10.040;2024-02-28T02:43:06;34.78;;;18.80;;
7563;SDS011;3823;53.586;10.040;2024-02-28T02:45:31;37.22;;;18.65;;
7563;SDS011;3823;53.586;10.040;2024-02-28T02:47:57;40.35;;;17.92;;
7563;SDS011;3823;53.586;10.040;2024-02-28T02:50:22;32.50;;;16.38;;
7563;SDS011;3823;53.586;10.040;2024-02-28T02:52:48;32.17;;;16.88;;
7563;SDS011;3823;53.586;10.040;2024-02-28T02:55:13;31.00;;;17.75;;
7563;SDS011;3823;53.586;10.040;2024-02-28T02:57:40;31.63;;;16.70;;
7563;SDS011;3823;53.586;10.040;2024-02-28T03:00:08;34.75;;;17.52;;
7563;SDS011;3823;53.586;10.040;2024-02-28T03:02:34;32.35;;;18.48;;
7563;SDS011;3823;53.586;10.040;2024-02-28T03:05:02;30.60;;;15.93;;
7563;SDS011;3823;53.586;10.040;2024-02-28T03:07:28;34.35;;;18.27;;
7563;SDS011;3823;53.586;10.040;2024-02-28T03:09:53;33.30;;;17.45;;
7563;SDS011;3823;53.586;10.040;2024-02-28T03:12:19;30.42;;;15.40;;
7563;SDS011;3823;53.586;10.040;2024-02-28T03:14:46;31.42;;;15.77;;
7563;SDS011;3823;53.586;10.040;2024-02-28T03:17:13;33.35;;;18.13;;
7563;SDS011;3823;53.586;10.040;2024-02-28T03:19:40;27.20;;;14.23;;
7563;SDS011;3823;53.586;10.040;2024-02-28T03:22:08;28.65;;;14.60;;
7563;SDS011;3823;53.586;10.040;2024-02-28T03:24:34;30.23;;;16.45;;
7563;SDS011;3823;53.586;10.040;2024-02-28T03:27:00;29.52;;;15.40;;
7563;SDS011;3823;53.586;10.040;2024-02-28T03:29:29;29.20;;;14.13;;
7563;SDS011;3823;53.586;10.040;2024-02-28T03:31:55;34.85;;;15.70;;
7563;SDS011;3823;53.586;10.040;2024-02-28T03:34:21;28.02;;;14.60;;
7563;SDS011;3823;53.586;10.040;2024-02-28T03:36:47;30.27;;;15.25;;
7563;SDS011;3823;53.586;10.040;2024-02-28T03:39:12;29.70;;;15.25;;
7563;SDS011;3823;53.586;10.040;2024-02-28T03:41:38;27.30;;;15.07;;
7563;SDS011;3823;53.586;10.040;2024-02-28T03:44:04;37.20;;;15.57;;
7563;SDS011;3823;53.586;10.040;2024-02-28T03:46:30;29.45;;;13.80;;
7563;SDS011;3823;53.586;10.040;2024-02-28T03:48:55;30.75;;;15.95;;
7563;SDS011;3823;53.586;10.040;2024-02-28T03:51:21;27.30;;;14.23;;
7563;SDS011;3823;53.586;10.040;2024-02-28T03:53:47;30.55;;;15.70;;
7563;SDS011;3823;53.586;10.040;2024-02-28T03:56:12;29.05;;;15.55;;
7563;SDS011;3823;53.586;10.040;2024-02-28T03:58:39;36.00;;;17.13;;
7563;SDS011;3823;53.586;10.040;2024-02-28T04:01:05;30.05;;;14.80;;
7563;SDS011;3823;53.586;10.040;2024-02-28T04:03:31;31.60;;;15.85;;
7563;SDS011;3823;53.586;10.040;2024-02-28T04:05:56;28.73;;;14.75;;
7563;SDS011;3823;53.586;10.040;2024-02-28T04:08:23;30.15;;;15.82;;
7563;SDS011;3823;53.586;10.040;2024-02-28T04:10:48;29.35;;;14.80;;
7563;SDS011;3823;53.586;10.040;2024-02-28T04:13:15;27.10;;;15.75;;
7563;SDS011;3823;53.586;10.040;2024-02-28T04:15:41;28.75;;;15.50;;
7563;SDS011;3823;53.586;10.040;2024-02-28T04:18:07;30.98;;;16.10;;
7563;SDS011;3823;53.586;10.040;2024-02-28T04:20:33;32.72;;;16.60;;
7563;SDS011;3823;53.586;10.040;2024-02-28T04:22:58;37.25;;;18.33;;
7563;SDS011;3823;53.586;10.040;2024-02-28T04:25:24;34.88;;;17.67;;
7563;SDS011;3823;53.586;10.040;2024-02-28T04:27:49;32.05;;;16.63;;
7563;SDS011;3823;53.586;10.040;2024-02-28T04:30:15;35.05;;;16.88;;
7563;SDS011;3823;53.586;10.040;2024-02-28T04:32:41;29.02;;;15.90;;
7563;SDS011;3823;53.586;10.040;2024-02-28T04:35:06;31.65;;;16.00;;
7563;SDS011;3823;53.586;10.040;2024-02-28T04:37:32;37.70;;;18.27;;
7563;SDS011;3823;53.586;10.040;2024-02-28T04:39:59;32.53;;;17.00;;
7563;SDS011;3823;53.586;10.040;2024-02-28T04:42:25;37.92;;;18.98;;
7563;SDS011;3823;53.586;10.040;2024-02-28T04:44:51;32.30;;;17.35;;
7563;SDS011;3823;53.586;10.040;2024-02-28T04:47:16;34.05;;;17.50;;
7563;SDS011;3823;53.586;10.040;2024-02-28T04:49:42;33.58;;;18.85;;
7563;SDS011;3823;53.586;10.040;2024-02-28T04:52:08;33.40;;;17.42;;
7563;SDS011;3823;53.586;10.040;2024-02-28T04:54:33;38.97;;;18.40;;
7563;SDS011;3823;53.586;10.040;2024-02-28T04:56:59;34.65;;;16.60;;
7563;SDS011;3823;53.586;10.040;2024-02-28T04:59:24;32.70;;;17.00;;
7563;SDS011;3823;53.586;10.040;2024-02-28T05:01:50;36.55;;;18.42;;
7563;SDS011;3823;53.586;10.040;2024-02-28T05:04:17;32.08;;;17.25;;
7563;SDS011;3823;53.586;10.040;2024-02-28T05:06:42;38.88;;;20.05;;
7563;SDS011;3823;53.586;10.040;2024-02-28T05:09:08;32.55;;;15.25;;
7563;SDS011;3823;53.586;10.040;2024-02-28T05:11:34;35.13;;;16.85;;
7563;SDS011;3823;53.586;10.040;2024-02-28T05:14:00;31.73;;;16.17;;
7563;SDS011;3823;53.586;10.040;2024-02-28T05:16:25;34.60;;;17.98;;
7563;SDS011;3823;53.586;10.040;2024-02-28T05:18:51;31.25;;;16.52;;
7563;SDS011;3823;53.586;10.040;2024-02-28T05:21:17;33.17;;;16.92;;
7563;SDS011;3823;53.586;10.040;2024-02-28T05:23:42;31.20;;;16.23;;
7563;SDS011;3823;53.586;10.040;2024-02-28T05:26:08;33.97;;;18.50;;
7563;SDS011;3823;53.586;10.040;2024-02-28T05:28:33;32.03;;;16.33;;
7563;SDS011;3823;53.586;10.040;2024-02-28T05:31:01;39.90;;;17.92;;
7563;SDS011;3823;53.586;10.040;2024-02-28T05:33:29;34.97;;;16.33;;
7563;SDS011;3823;53.586;10.040;2024-02-28T05:35:54;32.00;;;16.80;;
7563;SDS011;3823;53.586;10.040;2024-02-28T05:38:20;37.95;;;18.60;;
7563;SDS011;3823;53.586;10.040;2024-02-28T05:40:45;29.48;;;16.15;;
7563;SDS011;3823;53.586;10.040;2024-02-28T05:43:11;35.92;;;19.17;;
7563;SDS011;3823;53.586;10.040;2024-02-28T05:45:37;37.15;;;17.05;;
7563;SDS011;3823;53.586;10.040;2024-02-28T05:48:02;35.03;;;17.70;;
7563;SDS011;3823;53.586;10.040;2024-02-28T05:50:28;31.35;;;16.60;;
7563;SDS011;3823;53.586;10.040;2024-02-28T05:52:54;39.00;;;18.98;;
7563;SDS011;3823;53.586;10.040;2024-02-28T05:55:20;34.45;;;17.10;;
7563;SDS011;3823;53.586;10.040;2024-02-28T05:57:49;37.35;;;18.58;;
7563;SDS011;3823;53.586;10.040;2024-02-28T06:00:14;35.63;;;17.65;;
7563;SDS011;3823;53.586;10.040;2024-02-28T06:02:40;33.22;;;18.65;;
7563;SDS011;3823;53.586;10.040;2024-02-28T06:05:07;36.65;;;19.02;;
7563;SDS011;3823;53.586;10.040;2024-02-28T06:07:32;33.83;;;17.70;;
7563;SDS011;3823;53.586;10.040;2024-02-28T06:09:58;38.78;;;17.23;;
7563;SDS011;3823;53.586;10.040;2024-02-28T06:12:24;43.92;;;18.15;;
7563;SDS011;3823;53.586;10.040;2024-02-28T06:14:50;36.15;;;19.08;;
7563;SDS011;3823;53.586;10.040;2024-02-28T06:17:15;39.50;;;17.73;;
7563;SDS011;3823;53.586;10.040;2024-02-28T06:19:41;34.00;;;17.80;;
7563;SDS011;3823;53.586;10.040;2024-02-28T06:22:07;34.80;;;15.60;;
7563;SDS011;3823;53.586;10.040;2024-02-28T06:24:36;30.85;;;15.40;;
7563;SDS011;3823;53.586;10.040;2024-02-28T06:27:01;33.50;;;15.48;;
7563;SDS011;3823;53.586;10.040;2024-02-28T06:29:28;29.25;;;15.30;;
7563;SDS011;3823;53.586;10.040;2024-02-28T06:31:53;27.40;;;15.77;;
7563;SDS011;3823;53.586;10.040;2024-02-28T06:34:20;26.45;;;13.93;;
7563;SDS011;3823;53.586;10.040;2024-02-28T06:36:47;30.08;;;16.27;;
7563;SDS011;3823;53.586;10.040;2024-02-28T06:39:13;27.40;;;13.55;;
7563;SDS011;3823;53.586;10.040;2024-02-28T06:41:38;28.77;;;15.52;;
7563;SDS011;3823;53.586;10.040;2024-02-28T06:44:04;23.65;;;13.52;;
7563;SDS011;3823;53.586;10.040;2024-02-28T06:46:30;29.55;;;13.98;;
7563;SDS011;3823;53.586;10.040;2024-02-28T06:48:55;29.02;;;15.10;;
7563;SDS011;3823;53.586;10.040;2024-02-28T06:51:23;25.00;;;14.65;;
7563;SDS011;3823;53.586;10.040;2024-02-28T06:53:49;25.42;;;13.88;;
7563;SDS011;3823;53.586;10.040;2024-02-28T06:56:14;29.30;;;13.25;;
7563;SDS011;3823;53.586;10.040;2024-02-28T06:58:40;25.08;;;12.95;;
7563;SDS011;3823;53.586;10.040;2024-02-28T07:01:06;31.58;;;14.13;;
7563;SDS011;3823;53.586;10.040;2024-02-28T07:03:32;29.02;;;14.30;;
7563;SDS011;3823;53.586;10.040;2024-02-28T07:05:57;22.67;;;13.82;;
7563;SDS011;3823;53.586;10.040;2024-02-28T07:08:23;20.83;;;12.50;;
7563;SDS011;3823;53.586;10.040;2024-02-28T07:10:48;27.02;;;14.27;;
7563;SDS011;3823;53.586;10.040;2024-02-28T07:13:18;27.50;;;15.65;;
7563;SDS011;3823;53.586;10.040;2024-02-28T07:15:45;27.27;;;14.32;;
7563;SDS011;3823;53.586;10.040;2024-02-28T07:18:11;26.83;;;14.73;;
7563;SDS011;3823;53.586;10.040;2024-02-28T07:20:36;24.42;;;13.05;;
7563;SDS011;3823;53.586;10.040;2024-02-28T07:23:02;21.40;;;12.80;;
7563;SDS011;3823;53.586;10.040;2024-02-28T07:25:28;22.90;;;13.35;;
7563;SDS011;3823;53.586;10.040;2024-02-28T07:27:56;27.40;;;13.27;;
7563;SDS011;3823;53.586;10.040;2024-02-28T07:30:22;24.45;;;13.60;;
7563;SDS011;3823;53.586;10.040;2024-02-28T07:32:48;23.75;;;12.23;;
7563;SDS011;3823;53.586;10.040;2024-02-28T07:35:13;27.85;;;14.73;;
7563;SDS011;3823;53.586;10.040;2024-02-28T07:37:43;21.95;;;12.90;;
7563;SDS011;3823;53.586;10.040;2024-02-28T07:40:09;29.10;;;12.95;;
7563;SDS011;3823;53.586;10.040;2024-02-28T07:42:35;25.52;;;14.32;;
7563;SDS011;3823;53.586;10.040;2024-02-28T07:45:01;26.90;;;13.70;;
7563;SDS011;3823;53.586;10.040;2024-02-28T07:47:26;27.95;;;13.90;;
7563;SDS011;3823;53.586;10.040;2024-02-28T07:49:52;26.60;;;14.13;;
7563;SDS011;3823;53.586;10.040;2024-02-28T07:52:18;23.65;;;14.07;;
7563;SDS011;3823;53.586;10.040;2024-02-28T07:54:44;28.92;;;15.45;;
7563;SDS011;3823;53.586;10.040;2024-02-28T07:57:10;26.50;;;14.15;;
7563;SDS011;3823;53.586;10.040;2024-02-28T07:59:40;32.90;;;18.15;;
7563;SDS011;3823;53.586;10.040;2024-02-28T08:02:06;28.00;;;15.45;;
7563;SDS011;3823;53.586;10.040;2024-02-28T08:04:32;32.15;;;16.50;;
7563;SDS011;3823;53.586;10.040;2024-02-28T08:06:59;31.65;;;16.60;;
7563;SDS011;3823;53.586;10.040;2024-02-28T08:09:25;27.73;;;15.63;;
7563;SDS011;3823;53.586;10.040;2024-02-28T08:11:50;28.05;;;14.48;;
7563;SDS011;3823;53.586;10.040;2024-02-28T08:14:16;28.13;;;15.32;;
7563;SDS011;3823;53.586;10.040;2024-02-28T08:16:42;29.52;;;15.40;;
7563;SDS011;3823;53.586;10.040;2024-02-28T08:19:08;32.17;;;17.17;;
7563;SDS011;3823;53.586;10.040;2024-02-28T08:21:33;29.85;;;16.92;;
7563;SDS011;3823;53.586;10.040;2024-02-28T08:23:59;29.75;;;15.23;;
7563;SDS011;3823;53.586;10.040;2024-02-28T08:26:27;31.60;;;17.40;;
7563;SDS011;3823;53.586;10.040;2024-02-28T08:28:53;28.50;;;16.75;;
7563;SDS011;3823;53.586;10.040;2024-02-28T08:31:18;30.35;;;15.70;;
7563;SDS011;3823;53.586;10.040;2024-02-28T08:33:44;31.88;;;17.13;;
7563;SDS011;3823;53.586;10.040;2024-02-28T08:36:09;27.98;;;16.02;;
7563;SDS011;3823;53.586;10.040;2024-02-28T08:38:35;34.65;;;17.23;;
7563;SDS011;3823;53.586;10.040;2024-02-28T08:41:03;30.95;;;16.98;;
7563;SDS011;3823;53.586;10.040;2024-02-28T08:43:29;32.03;;;16.80;;
7563;SDS011;3823;53.586;10.040;2024-02-28T08:45:55;35.10;;;18.67;;
7563;SDS011;3823;53.586;10.040;2024-02-28T08:48:21;32.92;;;18.10;;
7563;SDS011;3823;53.586;10.040;2024-02-28T08:50:47;34.08;;;18.75;;
7563;SDS011;3823;53.586;10.040;2024-02-28T08:53:13;36.67;;;17.05;;
7563;SDS011;3823;53.586;10.040;2024-02-28T08:55:40;40.00;;;19.23;;
7563;SDS011;3823;53.586;10.040;2024-02-28T08:58:06;34.10;;;18.63;;
7563;SDS011;3823;53.586;10.040;2024-02-28T09:00:31;37.90;;;18.55;;
7563;SDS011;3823;53.586;10.040;2024-02-28T09:02:57;34.83;;;19.48;;
7563;SDS011;3823;53.586;10.040;2024-02-28T09:05:23;38.40;;;19.63;;
7563;SDS011;3823;53.586;10.040;2024-02-28T09:07:48;32.42;;;18.05;;
7563;SDS011;3823;53.586;10.040;2024-02-28T09:10:16;39.10;;;20.63;;
7563;SDS011;3823;53.586;10.040;2024-02-28T09:12:46;37.92;;;21.83;;
7563;SDS011;3823;53.586;10.040;2024-02-28T09:15:12;31.83;;;18.80;;
7563;SDS011;3823;53.586;10.040;2024-02-28T09:17:38;36.92;;;19.95;;
7563;SDS011;3823;53.586;10.040;2024-02-28T09:20:03;35.92;;;19.13;;
7563;SDS011;3823;53.586;10.040;2024-02-28T09:22:31;36.80;;;20.00;;
7563;SDS011;3823;53.586;10.040;2024-02-28T09:24:57;33.42;;;18.75;;
7563;SDS011;3823;53.586;10.040;2024-02-28T09:27:22;37.63;;;20.25;;
7563;SDS011;3823;53.586;10.040;2024-02-28T09:29:49;44.08;;;20.00;;
7563;SDS011;3823;53.586;10.040;2024-02-28T09:32:15;37.75;;;19.77;;
7563;SDS011;3823;53.586;10.040;2024-02-28T09:34:41;35.05;;;20.00;;
7563;SDS011;3823;53.586;10.040;2024-02-28T09:37:06;36.28;;;20.27;;
7563;SDS011;3823;53.586;10.040;2024-02-28T09:39:32;30.02;;;18.73;;
7563;SDS011;3823;53.586;10.040;2024-02-28T09:41:57;33.13;;;18.52;;
7563;SDS011;3823;53.586;10.040;2024-02-28T09:44:23;36.80;;;20.60;;
7563;SDS011;3823;53.586;10.040;2024-02-28T09:46:52;33.05;;;18.95;;
7563;SDS011;3823;53.586;10.040;2024-02-28T09:49:18;34.33;;;17.98;;
7563;SDS011;3823;53.586;10.040;2024-02-28T09:51:44;36.88;;;19.60;;
7563;SDS011;3823;53.586;10.040;2024-02-28T09:54:14;35.13;;;19.17;;
7563;SDS011;3823;53.586;10.040;2024-02-28T09:56:40;34.15;;;21.38;;
7563;SDS011;3823;53.586;10.040;2024-02-28T09:59:05;34.88;;;20.35;;
7563;SDS011;3823;53.586;10.040;2024-02-28T10:01:31;31.92;;;19.13;;
7563;SDS011;3823;53.586;10.040;2024-02-28T10:04:04;30.77;;;17.35;;
7563;SDS011;3823;53.586;10.040;2024-02-28T10:06:30;33.38;;;19.02;;
7563;SDS011;3823;53.586;10.040;2024-02-28T10:08:56;28.20;;;15.65;;
7563;SDS011;3823;53.586;10.040;2024-02-28T10:11:22;34.13;;;17.45;;
7563;SDS011;3823;53.586;10.040;2024-02-28T10:13:48;31.33;;;18.05;;
7563;SDS011;3823;53.586;10.040;2024-02-28T10:16:14;28.00;;;16.02;;
7563;SDS011;3823;53.586;10.040;2024-02-28T10:18:43;25.60;;;15.95;;
7563;SDS011;3823;53.586;10.040;2024-02-28T10:21:10;25.35;;;15.60;;
7563;SDS011;3823;53.586;10.040;2024-02-28T10:23:40;26.58;;;15.30;;
7563;SDS011;3823;53.586;10.040;2024-02-28T10:26:08;20.08;;;12.75;;
7563;SDS011;3823;53.586;10.040;2024-02-28T10:28:36;22.27;;;14.15;;
7563;SDS011;3823;53.586;10.040;2024-02-28T10:31:05;23.45;;;15.25;;
7563;SDS011;3823;53.586;10.040;2024-02-28T10:33:32;27.95;;;15.20;;
7563;SDS011;3823;53.586;10.040;2024-02-28T10:36:00;24.05;;;14.48;;
7563;SDS011;3823;53.586;10.040;2024-02-28T10:38:27;24.30;;;13.85;;
7563;SDS011;3823;53.586;10.040;2024-02-28T10:40:53;23.27;;;15.35;;
7563;SDS011;3823;53.586;10.040;2024-02-28T10:43:20;26.52;;;15.18;;
7563;SDS011;3823;53.586;10.040;2024-02-28T10:45:46;27.05;;;14.85;;
7563;SDS011;3823;53.586;10.040;2024-02-28T10:48:13;26.88;;;15.52;;
7563;SDS011;3823;53.586;10.040;2024-02-28T10:50:40;24.42;;;14.55;;
7563;SDS011;3823;53.586;10.040;2024-02-28T10:53:10;27.38;;;15.93;;
7563;SDS011;3823;53.586;10.040;2024-02-28T10:55:41;22.90;;;14.85;;
7563;SDS011;3823;53.586;10.040;2024-02-28T10:58:10;28.67;;;16.50;;
7563;SDS011;3823;53.586;10.040;2024-02-28T11:00:36;24.38;;;14.60;;
7563;SDS011;3823;53.586;10.040;2024-02-28T11:03:11;31.15;;;16.23;;
7563;SDS011;3823;53.586;10.040;2024-02-28T11:05:39;30.02;;;15.35;;
7563;SDS011;3823;53.586;10.040;2024-02-28T11:08:09;26.83;;;16.00;;
7563;SDS011;3823;53.586;10.040;2024-02-28T11:10:36;27.55;;;15.93;;
7563;SDS011;3823;53.586;10.040;2024-02-28T11:13:08;29.35;;;14.82;;
7563;SDS011;3823;53.586;10.040;2024-02-28T11:15:36;23.95;;;15.27;;
7563;SDS011;3823;53.586;10.040;2024-02-28T11:18:08;28.15;;;16.25;;
7563;SDS011;3823;53.586;10.040;2024-02-28T11:20:34;29.63;;;17.67;;
7563;SDS011;3823;53.586;10.040;2024-02-28T11:23:00;25.25;;;14.20;;
7563;SDS011;3823;53.586;10.040;2024-02-28T11:25:26;28.73;;;15.10;;
7563;SDS011;3823;53.586;10.040;2024-02-28T11:27:51;21.25;;;11.73;;
7563;SDS011;3823;53.586;10.040;2024-02-28T11:30:17;19.98;;;12.10;;
7563;SDS011;3823;53.586;10.040;2024-02-28T11:32:43;25.83;;;12.30;;
7563;SDS011;3823;53.586;10.040;2024-02-28T11:35:09;23.83;;;12.13;;
7563;SDS011;3823;53.586;10.040;2024-02-28T11:37:37;23.70;;;13.20;;
7563;SDS011;3823;53.586;10.040;2024-02-28T11:40:06;23.10;;;13.05;;
7563;SDS011;3823;53.586;10.040;2024-02-28T11:42:35;29.58;;;14.55;;
7563;SDS011;3823;53.586;10.040;2024-02-28T11:45:00;22.73;;;13.43;;
7563;SDS011;3823;53.586;10.040;2024-02-28T11:47:31;22.85;;;13.38;;
7563;SDS011;3823;53.586;10.040;2024-02-28T11:50:01;23.30;;;13.90;;
7563;SDS011;3823;53.586;10.040;2024-02-28T11:52:28;19.58;;;12.43;;
7563;SDS011;3823;53.586;10.040;2024-02-28T11:54:55;22.15;;;13.60;;
7563;SDS011;3823;53.586;10.040;2024-02-28T11:57:21;23.55;;;14.00;;
7563;SDS011;3823;53.586;10.040;2024-02-28T11:59:47;22.38;;;13.98;;
7563;SDS011;3823;53.586;10.040;2024-02-28T12:02:14;27.23;;;14.40;;
7563;SDS011;3823;53.586;10.040;2024-02-28T12:04:43;26.85;;;15.18;;
7563;SDS011;3823;53.586;10.040;2024-02-28T12:07:09;31.50;;;16.73;;
7563;SDS011;3823;53.586;10.040;2024-02-28T12:09:35;27.92;;;14.75;;
7563;SDS011;3823;53.586;10.040;2024-02-28T12:12:01;32.75;;;16.80;;
7563;SDS011;3823;53.586;10.040;2024-02-28T12:14:29;28.92;;;16.88;;
7563;SDS011;3823;53.586;10.040;2024-02-28T12:17:01;27.83;;;16.08;;
7563;SDS011;3823;53.586;10.040;2024-02-28T12:19:27;25.02;;;13.45;;
7563;SDS011;3823;53.586;10.040;2024-02-28T12:21:53;27.80;;;15.80;;
7563;SDS011;3823;53.586;10.040;2024-02-28T12:24:19;23.23;;;13.48;;
7563;SDS011;3823;53.586;10.040;2024-02-28T12:26:45;25.25;;;15.35;;
7563;SDS011;3823;53.586;10.040;2024-02-28T12:29:11;27.30;;;15.38;;
7563;SDS011;3823;53.586;10.040;2024-02-28T12:31:37;24.48;;;16.13;;
7563;SDS011;3823;53.586;10.040;2024-02-28T12:34:03;26.77;;;15.05;;
7563;SDS011;3823;53.586;10.040;2024-02-28T12:36:29;25.63;;;14.50;;
7563;SDS011;3823;53.586;10.040;2024-02-28T12:38:56;26.85;;;15.10;;
7563;SDS011;3823;53.586;10.040;2024-02-28T12:41:22;26.13;;;14.43;;
7563;SDS011;3823;53.586;10.040;2024-02-28T12:43:48;26.92;;;15.55;;
7563;SDS011;3823;53.586;10.040;2024-02-28T12:46:15;30.67;;;16.33;;
7563;SDS011;3823;53.586;10.040;2024-02-28T12:48:40;29.17;;;17.70;;
7563;SDS011;3823;53.586;10.040;2024-02-28T12:51:06;26.52;;;14.57;;
7563;SDS011;3823;53.586;10.040;2024-02-28T12:53:33;29.65;;;15.32;;
7563;SDS011;3823;53.586;10.040;2024-02-28T12:55:59;25.35;;;15.65;;
7563;SDS011;3823;53.586;10.040;2024-02-28T12:58:25;25.52;;;15.30;;
7563;SDS011;3823;53.586;10.040;2024-02-28T13:00:51;25.65;;;15.40;;
7563;SDS011;3823;53.586;10.040;2024-02-28T13:03:17;25.48;;;14.57;;
7563;SDS011;3823;53.586;10.040;2024-02-28T13:05:43;31.08;;;13.30;;
7563;SDS011;3823;53.586;10.040;2024-02-28T13:08:09;24.75;;;14.38;;
7563;SDS011;3823;53.586;10.040;2024-02-28T13:10:35;24.38;;;15.40;;
7563;SDS011;3823;53.586;10.040;2024-02-28T13:13:04;26.85;;;15.13;;
7563;SDS011;3823;53.586;10.040;2024-02-28T13:15:31;32.10;;;15.55;;
7563;SDS011;3823;53.586;10.040;2024-02-28T13:17:56;24.48;;;13.23;;
7563;SDS011;3823;53.586;10.040;2024-02-28T13:20:22;21.33;;;13.45;;
7563;SDS011;3823;53.586;10.040;2024-02-28T13:22:48;26.30;;;13.63;;
7563;SDS011;3823;53.586;10.040;2024-02-28T13:25:13;29.60;;;14.82;;
7563;SDS011;3823;53.586;10.040;2024-02-28T13:27:40;23.85;;;14.20;;
7563;SDS011;3823;53.586;10.040;2024-02-28T13:30:06;21.30;;;14.68;;
7563;SDS011;3823;53.586;10.040;2024-02-28T13:32:32;28.15;;;14.98;;
7563;SDS011;3823;53.586;10.040;2024-02-28T13:34:58;27.00;;;15.75;;
7563;SDS011;3823;53.586;10.040;2024-02-28T13:37:24;24.67;;;12.75;;
7563;SDS011;3823;53.586;10.040;2024-02-28T13:39:50;24.73;;;14.98;;
7563;SDS011;3823;53.586;10.040;2024-02-28T13:42:17;24.83;;;13.88;;
7563;SDS011;3823;53.586;10.040;2024-02-28T13:44:45;23.55;;;13.30;;
7563;SDS011;3823;53.586;10.040;2024-02-28T13:47:11;26.35;;;14.32;;
7563;SDS011;3823;53.586;10.040;2024-02-28T13:49:38;21.15;;;13.18;;
7563;SDS011;3823;53.586;10.040;2024-02-28T13:52:04;26.92;;;13.13;;
7563;SDS011;3823;53.586;10.040;2024-02-28T13:54:30;21.73;;;12.30;;
7563;SDS011;3823;53.586;10.040;2024-02-28T13:56:56;23.13;;;12.48;;
7563;SDS011;3823;53.586;10.040;2024-02-28T13:59:21;24.00;;;12.38;;
7563;SDS011;3823;53.586;10.040;2024-02-28T14:01:47;23.40;;;14.02;;
7563;SDS011;3823;53.586;10.040;2024-02-28T14:04:13;26.55;;;14.48;;
7563;SDS011;3823;53.586;10.040;2024-02-28T14:06:38;21.20;;;14.05;;
7563;SDS011;3823;53.586;10.040;2024-02-28T14:09:04;23.58;;;13.43;;
7563;SDS011;3823;53.586;10.040;2024-02-28T14:11:29;19.30;;;12.90;;
7563;SDS011;3823;53.586;10.040;2024-02-28T14:13:55;21.38;;;12.48;;
7563;SDS011;3823;53.586;10.040;2024-02-28T14:16:21;22.83;;;12.45;;
7563;SDS011;3823;53.586;10.040;2024-02-28T14:18:46;21.55;;;12.77;;
7563;SDS011;3823;53.586;10.040;2024-02-28T14:21:12;25.65;;;14.20;;
7563;SDS011;3823;53.586;10.040;2024-02-28T14:23:38;24.70;;;12.65;;
7563;SDS011;3823;53.586;10.040;2024-02-28T14:26:04;22.60;;;12.98;;
7563;SDS011;3823;53.586;10.040;2024-02-28T14:28:29;22.15;;;13.75;;